sensor_id;sensor_type;location;lat;lon;timestamp;pressure;altitude;pressure_sealevel;temperature;humidity
17373;BME280;8803;48.116;11.590;2023-07-30T00:02:32;95244.55;;;22.31;74.28
17373;BME280;8803;48.116;11.590;2023-07-30T00:04:36;95248.95;;;22.26;74.26
17373;BME280;8803;48.116;11.590;2023-07-30T00:06:40;95258.67;;;22.24;74.35
17373;BME280;8803;48.116;11.590;2023-07-30T00:08:44;95267.03;;;22.23;74.48
17373;BME280;8803;48.116;11.590;2023-07-30T00:10:48;95257.73;;;22.21;74.49
17373;BME280;8803;48.116;11.590;2023-07-30T00:12:52;95254.22;;;22.21;74.65
17373;BME280;8803;48.116;11.590;2023-07-30T00:14:56;95256.84;;;22.18;74.73
17373;BME280;8803;48.116;11.590;2023-07-30T00:19:12;95253.52;;;22.16;76.40
17373;BME280;8803;48.116;11.590;2023-07-30T00:21:16;95261.45;;;22.11;76.28
17373;BME280;8803;48.116;11.590;2023-07-30T00:25:32;95261.23;;;22.13;76.70
17373;BME280;8803;48.116;11.590;2023-07-30T00:29:48;95264.07;;;22.09;76.84
17373;BME280;8803;48.116;11.590;2023-07-30T00:31:52;95269.63;;;22.05;76.33
17373;BME280;8803;48.116;11.590;2023-07-30T00:33:56;95271.53;;;22.04;76.35
17373;BME280;8803;48.116;11.590;2023-07-30T00:36:00;95274.98;;;22.02;76.72
17373;BME280;8803;48.116;11.590;2023-07-30T00:38:03;95273.82;;;22.00;77.36
17373;BME280;8803;48.116;11.590;2023-07-30T00:40:09;95277.59;;;21.99;77.28
17373;BME280;8803;48.116;11.590;2023-07-30T00:42:13;95275.30;;;21.96;77.64
17373;BME280;8803;48.116;11.590;2023-07-30T00:44:17;95281.24;;;21.96;77.45
17373;BME280;8803;48.116;11.590;2023-07-30T00:48:33;95280.73;;;21.96;78.51
17373;BME280;8803;48.116;11.590;2023-07-30T00:52:51;95275.43;;;21.92;78.81
17373;BME280;8803;48.116;11.590;2023-07-30T00:54:55;95276.59;;;21.87;78.71
17373;BME280;8803;48.116;11.590;2023-07-30T00:57:01;95282.02;;;21.87;78.81
17373;BME280;8803;48.116;11.590;2023-07-30T00:59:05;95279.84;;;21.87;78.96
17373;BME280;8803;48.116;11.590;2023-07-30T01:01:09;95279.23;;;21.85;78.56
17373;BME280;8803;48.116;11.590;2023-07-30T01:03:13;95285.17;;;21.84;78.94
17373;BME280;8803;48.116;11.590;2023-07-30T01:05:17;95285.39;;;21.83;78.81
17373;BME280;8803;48.116;11.590;2023-07-30T01:07:21;95281.84;;;21.82;78.68
17373;BME280;8803;48.116;11.590;2023-07-30T01:09:24;95275.77;;;21.80;79.20
17373;BME280;8803;48.116;11.590;2023-07-30T01:11:29;95267.32;;;21.79;78.99
17373;BME280;8803;48.116;11.590;2023-07-30T01:13:34;95262.73;;;21.80;79.15
17373;BME280;8803;48.116;11.590;2023-07-30T01:15:38;95257.73;;;21.77;79.36
17373;BME280;8803;48.116;11.590;2023-07-30T01:19:55;95256.19;;;21.78;79.34
17373;BME280;8803;48.116;11.590;2023-07-30T01:21:59;95266.61;;;21.75;79.04
17373;BME280;8803;48.116;11.590;2023-07-30T01:26:19;95266.70;;;21.77;79.34
17373;BME280;8803;48.116;11.590;2023-07-30T01:28:25;95273.31;;;21.72;79.13
17373;BME280;8803;48.116;11.590;2023-07-30T01:30:32;95279.77;;;21.71;78.94
17373;BME280;8803;48.116;11.590;2023-07-30T01:34:50;95274.34;;;21.71;79.39
17373;BME280;8803;48.116;11.590;2023-07-30T01:36:57;95277.41;;;21.66;79.15
17373;BME280;8803;48.116;11.590;2023-07-30T01:39:02;95273.23;;;21.63;79.65
17373;BME280;8803;48.116;11.590;2023-07-30T01:41:06;95265.52;;;21.60;79.81
17373;BME280;8803;48.116;11.590;2023-07-30T01:45:22;95271.68;;;21.58;80.68
17373;BME280;8803;48.116;11.590;2023-07-30T01:47:26;95275.86;;;21.54;80.26
17373;BME280;8803;48.116;11.590;2023-07-30T01:49:30;95278.28;;;21.53;80.26
17373;BME280;8803;48.116;11.590;2023-07-30T01:51:34;95282.13;;;21.55;80.26
17373;BME280;8803;48.116;11.590;2023-07-30T01:53:37;95282.13;;;21.55;80.79
17373;BME280;8803;48.116;11.590;2023-07-30T01:55:41;95278.57;;;21.54;80.62
17373;BME280;8803;48.116;11.590;2023-07-30T01:57:46;95278.05;;;21.55;80.25
17373;BME280;8803;48.116;11.590;2023-07-30T01:59:50;95273.48;;;21.55;80.10
17373;BME280;8803;48.116;11.590;2023-07-30T02:01:53;95272.12;;;21.55;79.79
17373;BME280;8803;48.116;11.590;2023-07-30T02:03:57;95277.84;;;21.56;79.58
17373;BME280;8803;48.116;11.590;2023-07-30T02:06:01;95276.48;;;21.56;79.43
17373;BME280;8803;48.116;11.590;2023-07-30T02:10:17;95258.45;;;21.59;79.29
17373;BME280;8803;48.116;11.590;2023-07-30T02:12:21;95269.93;;;21.55;79.00
17373;BME280;8803;48.116;11.590;2023-07-30T02:16:38;95266.07;;;21.60;78.86
17373;BME280;8803;48.116;11.590;2023-07-30T02:18:42;95266.70;;;21.55;78.72
17373;BME280;8803;48.116;11.590;2023-07-30T02:20:46;95268.90;;;21.56;78.63
17373;BME280;8803;48.116;11.590;2023-07-30T02:22:50;95273.77;;;21.56;78.76
17373;BME280;8803;48.116;11.590;2023-07-30T02:24:53;95270.77;;;21.55;78.88
17373;BME280;8803;48.116;11.590;2023-07-30T02:26:59;95273.48;;;21.55;78.79
17373;BME280;8803;48.116;11.590;2023-07-30T02:31:15;95264.39;;;21.59;79.03
17373;BME280;8803;48.116;11.590;2023-07-30T02:33:19;95259.94;;;21.55;78.73
17373;BME280;8803;48.116;11.590;2023-07-30T02:35:23;95262.64;;;21.55;79.03
17373;BME280;8803;48.116;11.590;2023-07-30T02:39:42;95263.98;;;21.62;79.11
17373;BME280;8803;48.116;11.590;2023-07-30T02:41:46;95263.55;;;21.58;78.62
17373;BME280;8803;48.116;11.590;2023-07-30T02:43:50;95258.97;;;21.59;78.41
17373;BME280;8803;48.116;11.590;2023-07-30T02:45:53;95259.91;;;21.62;78.23
17373;BME280;8803;48.116;11.590;2023-07-30T02:47:57;95257.72;;;21.61;78.42
17373;BME280;8803;48.116;11.590;2023-07-30T02:52:14;95256.63;;;21.69;78.13
17373;BME280;8803;48.116;11.590;2023-07-30T02:54:18;95261.33;;;21.64;77.98
17373;BME280;8803;48.116;11.590;2023-07-30T02:56:24;95266.56;;;21.66;77.83
17373;BME280;8803;48.116;11.590;2023-07-30T03:00:40;95268.92;;;21.71;78.02
17373;BME280;8803;48.116;11.590;2023-07-30T03:02:44;95275.09;;;21.69;77.84
17373;BME280;8803;48.116;11.590;2023-07-30T03:04:48;95274.34;;;21.71;77.83
17373;BME280;8803;48.116;11.590;2023-07-30T03:09:04;95282.13;;;21.77;77.67
17373;BME280;8803;48.116;11.590;2023-07-30T03:11:08;95275.48;;;21.73;77.45
17373;BME280;8803;48.116;11.590;2023-07-30T03:15:24;95269.64;;;21.76;77.50
17373;BME280;8803;48.116;11.590;2023-07-30T03:17:28;95286.54;;;21.71;77.41
17373;BME280;8803;48.116;11.590;2023-07-30T03:19:32;95292.80;;;21.72;77.49
17373;BME280;8803;48.116;11.590;2023-07-30T03:23:48;95303.12;;;21.72;78.34
17373;BME280;8803;48.116;11.590;2023-07-30T03:28:05;95299.80;;;21.70;79.60
17373;BME280;8803;48.116;11.590;2023-07-30T03:30:10;95304.69;;;21.64;80.44
17373;BME280;8803;48.116;11.590;2023-07-30T03:34:27;95307.40;;;21.64;80.64
17373;BME280;8803;48.116;11.590;2023-07-30T03:36:30;95308.26;;;21.58;80.23
17373;BME280;8803;48.116;11.590;2023-07-30T03:38:34;95309.31;;;21.57;79.73
17373;BME280;8803;48.116;11.590;2023-07-30T03:40:38;95300.25;;;21.54;79.85
17373;BME280;8803;48.116;11.590;2023-07-30T03:42:42;95300.77;;;21.54;79.71
17373;BME280;8803;48.116;11.590;2023-07-30T03:44:45;95302.12;;;21.54;79.37
17373;BME280;8803;48.116;11.590;2023-07-30T03:46:49;95301.20;;;21.51;79.34
17373;BME280;8803;48.116;11.590;2023-07-30T03:48:53;95300.37;;;21.50;79.24
17373;BME280;8803;48.116;11.590;2023-07-30T03:50:57;95307.03;;;21.48;79.59
17373;BME280;8803;48.116;11.590;2023-07-30T03:53:01;95307.77;;;21.46;79.68
17373;BME280;8803;48.116;11.590;2023-07-30T03:55:06;95311.22;;;21.44;79.81
17373;BME280;8803;48.116;11.590;2023-07-30T03:57:10;95314.98;;;21.43;80.00
17373;BME280;8803;48.116;11.590;2023-07-30T04:01:26;95314.25;;;21.45;79.98
17373;BME280;8803;48.116;11.590;2023-07-30T04:03:30;95318.94;;;21.40;80.03
17373;BME280;8803;48.116;11.590;2023-07-30T04:07:47;95311.66;;;21.41;81.14
17373;BME280;8803;48.116;11.590;2023-07-30T04:09:51;95323.63;;;21.36;81.71
17373;BME280;8803;48.116;11.590;2023-07-30T04:14:07;95314.27;;;21.38;81.37
17373;BME280;8803;48.116;11.590;2023-07-30T04:18:23;95313.64;;;21.36;81.46
17373;BME280;8803;48.116;11.590;2023-07-30T04:20:27;95318.66;;;21.33;81.05
17373;BME280;8803;48.116;11.590;2023-07-30T04:22:31;95312.41;;;21.32;80.79
17373;BME280;8803;48.116;11.590;2023-07-30T04:24:35;95310.31;;;21.34;80.60
17373;BME280;8803;48.116;11.590;2023-07-30T04:26:39;95316.02;;;21.35;80.58
17373;BME280;8803;48.116;11.590;2023-07-30T04:28:43;95322.06;;;21.37;80.84
17373;BME280;8803;48.116;11.590;2023-07-30T04:30:47;95319.97;;;21.39;81.34
17373;BME280;8803;48.116;11.590;2023-07-30T04:32:50;95329.27;;;21.41;81.15
17373;BME280;8803;48.116;11.590;2023-07-30T04:37:07;95326.94;;;21.51;82.40
17373;BME280;8803;48.116;11.590;2023-07-30T04:39:11;95335.58;;;21.50;82.65
17373;BME280;8803;48.116;11.590;2023-07-30T04:43:26;95325.67;;;21.60;81.36
17373;BME280;8803;48.116;11.590;2023-07-30T04:45:30;95335.97;;;21.60;80.38
17373;BME280;8803;48.116;11.590;2023-07-30T04:47:34;95336.91;;;21.63;80.35
17373;BME280;8803;48.116;11.590;2023-07-30T04:49:38;95332.21;;;21.68;79.94
17373;BME280;8803;48.116;11.590;2023-07-30T04:51:42;95337.00;;;21.72;79.44
17373;BME280;8803;48.116;11.590;2023-07-30T04:53:46;95337.17;;;21.77;79.26
17373;BME280;8803;48.116;11.590;2023-07-30T04:55:55;95337.14;;;21.97;78.71
17373;BME280;8803;48.116;11.590;2023-07-30T04:57:59;95341.33;;;22.15;78.28
17373;BME280;8803;48.116;11.590;2023-07-30T05:00:05;95343.75;;;22.30;77.35
17373;BME280;8803;48.116;11.590;2023-07-30T05:02:09;95346.79;;;22.46;76.97
17373;BME280;8803;48.116;11.590;2023-07-30T05:04:13;95345.17;;;23.17;77.62
17373;BME280;8803;48.116;11.590;2023-07-30T05:06:17;95352.19;;;24.01;75.53
17373;BME280;8803;48.116;11.590;2023-07-30T05:08:21;95347.01;;;24.56;72.14
17373;BME280;8803;48.116;11.590;2023-07-30T05:10:25;95351.89;;;24.57;71.06
17373;BME280;8803;48.116;11.590;2023-07-30T05:12:29;95344.63;;;24.39;70.92
17373;BME280;8803;48.116;11.590;2023-07-30T05:14:32;95358.23;;;24.21;70.20
17373;BME280;8803;48.116;11.590;2023-07-30T05:16:36;95362.70;;;24.06;69.49
17373;BME280;8803;48.116;11.590;2023-07-30T05:18:40;95358.27;;;24.12;69.63
17373;BME280;8803;48.116;11.590;2023-07-30T05:20:46;95353.31;;;24.39;70.22
17373;BME280;8803;48.116;11.590;2023-07-30T05:22:49;95347.22;;;25.26;69.06
17373;BME280;8803;48.116;11.590;2023-07-30T05:24:53;95342.70;;;26.38;65.08
17373;BME280;8803;48.116;11.590;2023-07-30T05:26:57;95336.36;;;27.19;61.99
17373;BME280;8803;48.116;11.590;2023-07-30T05:29:01;95345.06;;;28.02;59.43
17373;BME280;8803;48.116;11.590;2023-07-30T05:31:05;95345.13;;;28.69;56.99
17373;BME280;8803;48.116;11.590;2023-07-30T05:35:22;95345.61;;;29.41;53.88
17373;BME280;8803;48.116;11.590;2023-07-30T05:37:26;95355.50;;;29.45;53.19
17373;BME280;8803;48.116;11.590;2023-07-30T05:41:42;95357.36;;;29.10;53.94
17373;BME280;8803;48.116;11.590;2023-07-30T05:43:46;95355.61;;;29.26;53.41
17373;BME280;8803;48.116;11.590;2023-07-30T05:48:03;95354.21;;;30.28;50.36
17373;BME280;8803;48.116;11.590;2023-07-30T05:50:09;95360.36;;;30.04;50.15
17373;BME280;8803;48.116;11.590;2023-07-30T05:52:13;95359.43;;;29.86;50.16
17373;BME280;8803;48.116;11.590;2023-07-30T05:54:18;95352.40;;;30.02;49.42
17373;BME280;8803;48.116;11.590;2023-07-30T05:56:21;95349.47;;;30.19;48.95
17373;BME280;8803;48.116;11.590;2023-07-30T05:58:25;95352.05;;;30.30;48.07
17373;BME280;8803;48.116;11.590;2023-07-30T06:00:29;95351.86;;;30.52;47.73
17373;BME280;8803;48.116;11.590;2023-07-30T06:02:33;95350.58;;;30.72;47.46
17373;BME280;8803;48.116;11.590;2023-07-30T06:04:37;95351.77;;;30.96;46.52
17373;BME280;8803;48.116;11.590;2023-07-30T06:06:41;95345.22;;;31.12;46.05
17373;BME280;8803;48.116;11.590;2023-07-30T06:08:45;95344.11;;;31.24;45.76
17373;BME280;8803;48.116;11.590;2023-07-30T06:13:01;95341.98;;;31.51;44.98
17373;BME280;8803;48.116;11.590;2023-07-30T06:15:09;95352.70;;;31.62;45.14
17373;BME280;8803;48.116;11.590;2023-07-30T06:19:25;95352.16;;;31.96;43.80
17373;BME280;8803;48.116;11.590;2023-07-30T06:21:29;95352.41;;;32.04;43.83
17373;BME280;8803;48.116;11.590;2023-07-30T06:25:47;95345.17;;;32.33;43.37
17373;BME280;8803;48.116;11.590;2023-07-30T06:27:51;95341.30;;;32.39;42.92
17373;BME280;8803;48.116;11.590;2023-07-30T06:32:08;95343.19;;;32.61;42.57
17373;BME280;8803;48.116;11.590;2023-07-30T06:34:12;95350.33;;;32.67;41.95
17373;BME280;8803;48.116;11.590;2023-07-30T06:38:29;95345.78;;;33.02;42.17
17373;BME280;8803;48.116;11.590;2023-07-30T06:40:32;95345.95;;;33.18;41.64
17373;BME280;8803;48.116;11.590;2023-07-30T06:44:48;95342.53;;;33.72;40.92
17373;BME280;8803;48.116;11.590;2023-07-30T06:46:52;95351.52;;;33.88;40.11
17373;BME280;8803;48.116;11.590;2023-07-30T06:48:57;95350.79;;;34.08;39.85
17373;BME280;8803;48.116;11.590;2023-07-30T06:51:00;95350.81;;;34.35;39.22
17373;BME280;8803;48.116;11.590;2023-07-30T06:53:11;95349.61;;;34.67;38.29
17373;BME280;8803;48.116;11.590;2023-07-30T06:55:15;95353.61;;;35.03;37.81
17373;BME280;8803;48.116;11.590;2023-07-30T06:57:19;95346.59;;;35.50;36.71
17373;BME280;8803;48.116;11.590;2023-07-30T06:59:23;95343.63;;;35.95;35.29
17373;BME280;8803;48.116;11.590;2023-07-30T07:03:39;95339.34;;;36.62;34.20
17373;BME280;8803;48.116;11.590;2023-07-30T07:05:43;95335.73;;;36.91;33.67
17373;BME280;8803;48.116;11.590;2023-07-30T07:07:47;95344.34;;;37.28;32.85
17373;BME280;8803;48.116;11.590;2023-07-30T07:09:51;95333.61;;;37.38;32.47
17373;BME280;8803;48.116;11.590;2023-07-30T07:11:55;95341.45;;;37.58;32.49
17373;BME280;8803;48.116;11.590;2023-07-30T07:13:59;95343.64;;;37.94;31.42
17373;BME280;8803;48.116;11.590;2023-07-30T07:16:03;95346.60;;;37.98;31.53
17373;BME280;8803;48.116;11.590;2023-07-30T07:18:07;95346.56;;;37.29;32.39
17373;BME280;8803;48.116;11.590;2023-07-30T07:20:11;95344.47;;;37.59;32.11
17373;BME280;8803;48.116;11.590;2023-07-30T07:24:27;95343.14;;;38.95;29.86
17373;BME280;8803;48.116;11.590;2023-07-30T07:26:31;95345.89;;;38.14;30.51
17373;BME280;8803;48.116;11.590;2023-07-30T07:28:35;95352.42;;;37.87;30.92
17373;BME280;8803;48.116;11.590;2023-07-30T07:30:39;95350.41;;;37.55;31.12
17373;BME280;8803;48.116;11.590;2023-07-30T07:32:43;95354.38;;;38.09;30.80
17373;BME280;8803;48.116;11.590;2023-07-30T07:34:47;95348.48;;;38.63;29.90
17373;BME280;8803;48.116;11.590;2023-07-30T07:36:51;95348.05;;;38.17;29.98
17373;BME280;8803;48.116;11.590;2023-07-30T07:41:14;95349.67;;;36.29;32.22
17373;BME280;8803;48.116;11.590;2023-07-30T07:45:32;95354.56;;;34.20;34.51
17373;BME280;8803;48.116;11.590;2023-07-30T07:47:35;95358.14;;;33.87;35.67
17373;BME280;8803;48.116;11.590;2023-07-30T07:51:52;95348.49;;;33.07;37.34
17373;BME280;8803;48.116;11.590;2023-07-30T07:53:55;95362.09;;;32.86;37.70
17373;BME280;8803;48.116;11.590;2023-07-30T07:55:59;95359.43;;;32.71;37.99
17373;BME280;8803;48.116;11.590;2023-07-30T07:58:03;95360.77;;;32.76;38.75
17373;BME280;8803;48.116;11.590;2023-07-30T08:00:09;95361.11;;;32.61;38.71
17373;BME280;8803;48.116;11.590;2023-07-30T08:02:13;95371.65;;;32.27;38.82
17373;BME280;8803;48.116;11.590;2023-07-30T08:04:17;95375.00;;;31.83;39.17
17373;BME280;8803;48.116;11.590;2023-07-30T08:08:33;95366.36;;;30.99;40.16
17373;BME280;8803;48.116;11.590;2023-07-30T08:10:40;95371.50;;;30.81;40.87
17373;BME280;8803;48.116;11.590;2023-07-30T08:12:46;95370.45;;;30.94;41.16
17373;BME280;8803;48.116;11.590;2023-07-30T08:14:51;95364.14;;;30.96;41.13
17373;BME280;8803;48.116;11.590;2023-07-30T08:16:55;95365.21;;;30.88;41.50
17373;BME280;8803;48.116;11.590;2023-07-30T08:18:58;95365.24;;;31.00;41.43
17373;BME280;8803;48.116;11.590;2023-07-30T08:23:15;95367.17;;;31.02;40.98
17373;BME280;8803;48.116;11.590;2023-07-30T08:25:19;95368.55;;;30.97;41.32
17373;BME280;8803;48.116;11.590;2023-07-30T08:27:23;95374.37;;;31.08;41.06
17373;BME280;8803;48.116;11.590;2023-07-30T08:29:27;95371.11;;;31.32;40.13
17373;BME280;8803;48.116;11.590;2023-07-30T08:31:31;95370.87;;;31.56;40.36
17373;BME280;8803;48.116;11.590;2023-07-30T08:33:35;95375.83;;;31.79;39.92
17373;BME280;8803;48.116;11.590;2023-07-30T08:37:51;95351.02;;;32.14;39.36
17373;BME280;8803;48.116;11.590;2023-07-30T08:39:55;95365.94;;;32.03;38.94
17373;BME280;8803;48.116;11.590;2023-07-30T08:41:59;95360.97;;;31.77;39.04
17373;BME280;8803;48.116;11.590;2023-07-30T08:46:15;95352.91;;;31.26;40.01
17373;BME280;8803;48.116;11.590;2023-07-30T08:48:19;95357.81;;;30.98;39.89
17373;BME280;8803;48.116;11.590;2023-07-30T08:52:36;95354.63;;;30.55;40.49
17373;BME280;8803;48.116;11.590;2023-07-30T08:54:40;95357.88;;;30.44;41.15
17373;BME280;8803;48.116;11.590;2023-07-30T08:56:44;95356.53;;;30.49;41.79
17373;BME280;8803;48.116;11.590;2023-07-30T08:58:50;95353.80;;;30.57;41.43
17373;BME280;8803;48.116;11.590;2023-07-30T09:00:56;95343.66;;;30.60;40.92
17373;BME280;8803;48.116;11.590;2023-07-30T09:03:02;95348.08;;;30.66;40.61
17373;BME280;8803;48.116;11.590;2023-07-30T09:05:08;95343.37;;;30.61;40.92
17373;BME280;8803;48.116;11.590;2023-07-30T09:07:13;95340.88;;;30.50;40.87
17373;BME280;8803;48.116;11.590;2023-07-30T09:11:29;95328.82;;;30.58;41.56
17373;BME280;8803;48.116;11.590;2023-07-30T09:15:51;95328.52;;;30.50;40.76
17373;BME280;8803;48.116;11.590;2023-07-30T09:17:56;95325.99;;;30.40;40.80
17373;BME280;8803;48.116;11.590;2023-07-30T09:20:01;95324.88;;;30.41;40.88
17373;BME280;8803;48.116;11.590;2023-07-30T09:24:22;95314.72;;;30.37;41.01
17373;BME280;8803;48.116;11.590;2023-07-30T09:26:26;95314.16;;;30.35;40.71
17373;BME280;8803;48.116;11.590;2023-07-30T09:30:46;95314.51;;;30.54;40.99
17373;BME280;8803;48.116;11.590;2023-07-30T09:32:54;95313.70;;;30.58;40.93
17373;BME280;8803;48.116;11.590;2023-07-30T09:35:04;95308.77;;;30.60;40.50
17373;BME280;8803;48.116;11.590;2023-07-30T09:37:10;95316.67;;;30.47;40.24
17373;BME280;8803;48.116;11.590;2023-07-30T09:39:18;95318.84;;;30.37;40.33
17373;BME280;8803;48.116;11.590;2023-07-30T09:41:22;95314.64;;;30.29;40.05
17373;BME280;8803;48.116;11.590;2023-07-30T09:43:30;95307.17;;;30.17;39.40
17373;BME280;8803;48.116;11.590;2023-07-30T09:45:36;95321.44;;;30.12;40.06
17373;BME280;8803;48.116;11.590;2023-07-30T09:47:40;95312.00;;;29.98;40.13
17373;BME280;8803;48.116;11.590;2023-07-30T09:49:44;95315.76;;;29.82;39.84
17373;BME280;8803;48.116;11.590;2023-07-30T09:51:48;95313.23;;;29.75;40.70
17373;BME280;8803;48.116;11.590;2023-07-30T09:53:53;95306.06;;;29.72;40.58
17373;BME280;8803;48.116;11.590;2023-07-30T09:58:09;95305.84;;;29.76;40.73
17373;BME280;8803;48.116;11.590;2023-07-30T10:02:29;95305.55;;;29.75;42.72
17373;BME280;8803;48.116;11.590;2023-07-30T10:04:35;95316.57;;;29.80;42.26
17373;BME280;8803;48.116;11.590;2023-07-30T10:08:57;95309.34;;;29.71;41.22
17373;BME280;8803;48.116;11.590;2023-07-30T10:11:04;95315.30;;;29.60;41.28
17373;BME280;8803;48.116;11.590;2023-07-30T10:13:10;95324.30;;;29.53;41.66
17373;BME280;8803;48.116;11.590;2023-07-30T10:17:32;95329.55;;;29.26;41.17
17373;BME280;8803;48.116;11.590;2023-07-30T10:21:49;95330.95;;;29.02;41.55
17373;BME280;8803;48.116;11.590;2023-07-30T10:24:00;95345.50;;;28.78;41.73
17373;BME280;8803;48.116;11.590;2023-07-30T10:26:10;95343.95;;;28.63;42.23
17373;BME280;8803;48.116;11.590;2023-07-30T10:28:33;95339.66;;;28.48;42.95
17373;BME280;8803;48.116;11.590;2023-07-30T10:30:38;95347.16;;;28.36;43.41
17373;BME280;8803;48.116;11.590;2023-07-30T10:32:58;95354.38;;;28.20;43.91
17373;BME280;8803;48.116;11.590;2023-07-30T10:34:49;95351.99;;;28.07;44.30
17373;BME280;8803;48.116;11.590;2023-07-30T10:36:54;95354.80;;;27.95;44.57
17373;BME280;8803;48.116;11.590;2023-07-30T10:39:01;95361.01;;;27.88;44.99
17373;BME280;8803;48.116;11.590;2023-07-30T10:41:07;95355.00;;;27.89;45.52
17373;BME280;8803;48.116;11.590;2023-07-30T10:43:18;95353.16;;;27.94;45.87
17373;BME280;8803;48.116;11.590;2023-07-30T10:45:26;95345.59;;;27.99;46.05
17373;BME280;8803;48.116;11.590;2023-07-30T10:47:30;95349.52;;;28.05;46.25
17373;BME280;8803;48.116;11.590;2023-07-30T10:49:38;95339.38;;;28.06;46.22
17373;BME280;8803;48.116;11.590;2023-07-30T10:51:43;95336.90;;;28.04;45.86
17373;BME280;8803;48.116;11.590;2023-07-30T10:53:47;95334.42;;;28.03;45.97
17373;BME280;8803;48.116;11.590;2023-07-30T10:55:53;95333.05;;;28.03;45.81
17373;BME280;8803;48.116;11.590;2023-07-30T10:57:58;95318.75;;;27.98;46.03
17373;BME280;8803;48.116;11.590;2023-07-30T11:00:04;95327.16;;;27.94;45.55
17373;BME280;8803;48.116;11.590;2023-07-30T11:02:08;95323.31;;;27.93;45.71
17373;BME280;8803;48.116;11.590;2023-07-30T11:04:15;95318.94;;;27.94;45.74
17373;BME280;8803;48.116;11.590;2023-07-30T11:08:36;95312.91;;;28.11;46.19
17373;BME280;8803;48.116;11.590;2023-07-30T11:10:44;95322.49;;;28.11;46.09
17373;BME280;8803;48.116;11.590;2023-07-30T11:12:50;95318.12;;;28.13;46.45
17373;BME280;8803;48.116;11.590;2023-07-30T11:15:02;95316.30;;;28.21;46.61
17373;BME280;8803;48.116;11.590;2023-07-30T11:17:06;95316.42;;;28.29;46.80
17373;BME280;8803;48.116;11.590;2023-07-30T11:19:10;95307.67;;;28.32;46.81
17373;BME280;8803;48.116;11.590;2023-07-30T11:21:17;95312.39;;;28.36;46.43
17373;BME280;8803;48.116;11.590;2023-07-30T11:23:22;95311.59;;;28.38;46.18
17373;BME280;8803;48.116;11.590;2023-07-30T11:25:26;95310.75;;;28.35;45.60
17373;BME280;8803;48.116;11.590;2023-07-30T11:27:30;95313.69;;;28.31;45.52
17373;BME280;8803;48.116;11.590;2023-07-30T11:29:35;95320.84;;;28.32;45.29
17373;BME280;8803;48.116;11.590;2023-07-30T11:31:39;95319.81;;;28.38;45.24
17373;BME280;8803;48.116;11.590;2023-07-30T11:35:56;95310.97;;;28.55;44.96
17373;BME280;8803;48.116;11.590;2023-07-30T11:38:00;95312.64;;;28.56;44.72
17373;BME280;8803;48.116;11.590;2023-07-30T11:40:07;95311.28;;;28.56;44.17
17373;BME280;8803;48.116;11.590;2023-07-30T11:42:12;95308.73;;;28.50;44.08
17373;BME280;8803;48.116;11.590;2023-07-30T11:44:31;95306.95;;;28.39;43.48
17373;BME280;8803;48.116;11.590;2023-07-30T11:48:47;95307.91;;;28.28;43.08
17373;BME280;8803;48.116;11.590;2023-07-30T11:50:52;95317.94;;;28.20;43.27
17373;BME280;8803;48.116;11.590;2023-07-30T11:52:56;95317.91;;;28.17;43.41
17373;BME280;8803;48.116;11.590;2023-07-30T11:55:04;95353.72;;;28.13;43.29
17373;BME280;8803;48.116;11.590;2023-07-30T11:57:08;95335.44;;;27.80;44.88
17373;BME280;8803;48.116;11.590;2023-07-30T11:59:12;95353.48;;;27.62;45.94
17373;BME280;8803;48.116;11.590;2023-07-30T12:03:28;95353.34;;;27.21;46.59
17373;BME280;8803;48.116;11.590;2023-07-30T12:07:48;95348.39;;;27.04;47.36
17373;BME280;8803;48.116;11.590;2023-07-30T12:09:52;95353.58;;;26.89;47.98
17373;BME280;8803;48.116;11.590;2023-07-30T12:11:57;95350.64;;;26.93;47.64
17373;BME280;8803;48.116;11.590;2023-07-30T12:16:14;95351.83;;;26.83;47.95
17373;BME280;8803;48.116;11.590;2023-07-30T12:18:18;95352.05;;;26.82;47.84
17373;BME280;8803;48.116;11.590;2023-07-30T12:20:22;95352.92;;;26.71;48.05
17373;BME280;8803;48.116;11.590;2023-07-30T12:22:27;95345.52;;;26.69;48.04
17373;BME280;8803;48.116;11.590;2023-07-30T12:24:31;95354.05;;;26.58;48.93
17373;BME280;8803;48.116;11.590;2023-07-30T12:26:35;95354.58;;;26.57;48.78
17373;BME280;8803;48.116;11.590;2023-07-30T12:28:39;95348.61;;;26.46;48.92
17373;BME280;8803;48.116;11.590;2023-07-30T12:30:43;95355.38;;;26.44;49.46
17373;BME280;8803;48.116;11.590;2023-07-30T12:32:47;95365.83;;;26.47;49.75
17373;BME280;8803;48.116;11.590;2023-07-30T12:34:51;95367.25;;;26.35;49.92
17373;BME280;8803;48.116;11.590;2023-07-30T12:36:54;95380.02;;;26.21;50.76
17373;BME280;8803;48.116;11.590;2023-07-30T12:38:59;95374.41;;;26.02;50.86
17373;BME280;8803;48.116;11.590;2023-07-30T12:41:02;95369.78;;;26.14;51.27
17373;BME280;8803;48.116;11.590;2023-07-30T12:43:06;95373.34;;;26.14;51.51
17373;BME280;8803;48.116;11.590;2023-07-30T12:45:11;95369.97;;;26.10;52.07
17373;BME280;8803;48.116;11.590;2023-07-30T12:47:15;95370.66;;;26.05;53.11
17373;BME280;8803;48.116;11.590;2023-07-30T12:49:19;95379.92;;;25.93;53.57
17373;BME280;8803;48.116;11.590;2023-07-30T12:51:23;95370.34;;;26.04;53.21
17373;BME280;8803;48.116;11.590;2023-07-30T12:53:28;95373.57;;;26.01;53.86
17373;BME280;8803;48.116;11.590;2023-07-30T12:55:32;95370.25;;;25.99;53.94
17373;BME280;8803;48.116;11.590;2023-07-30T12:57:36;95367.03;;;26.02;53.58
17373;BME280;8803;48.116;11.590;2023-07-30T12:59:39;95371.48;;;25.94;54.11
17373;BME280;8803;48.116;11.590;2023-07-30T13:01:43;95374.22;;;25.94;53.71
17373;BME280;8803;48.116;11.590;2023-07-30T13:03:47;95374.65;;;25.89;54.65
17373;BME280;8803;48.116;11.590;2023-07-30T13:05:52;95371.61;;;25.88;55.19
17373;BME280;8803;48.116;11.590;2023-07-30T13:07:56;95376.72;;;25.84;55.82
17373;BME280;8803;48.116;11.590;2023-07-30T13:10:05;95369.66;;;25.97;55.75
17373;BME280;8803;48.116;11.590;2023-07-30T13:14:22;95365.47;;;26.06;56.26
17373;BME280;8803;48.116;11.590;2023-07-30T13:16:26;95368.70;;;25.92;56.47